sensor_id;sensor_type;location;lat;lon;timestamp;P1;durP1;ratioP1;P2;durP2;ratioP2
43519;SDS011;46848;51.980;5.918;2023-03-04T00:02:03;11.40;;;2.07;;
43519;SDS011;46848;51.980;5.918;2023-03-04T00:04:29;9.80;;;2.27;;
43519;SDS011;46848;51.980;5.918;2023-03-04T00:06:55;14.50;;;2.90;;
43519;SDS011;46848;51.980;5.918;2023-03-04T00:09:20;10.93;;;2.23;;
43519;SDS011;46848;51.980;5.918;2023-03-04T00:11:46;11.70;;;2.33;;
43519;SDS011;46848;51.980;5.918;2023-03-04T00:14:12;15.40;;;2.83;;
43519;SDS011;46848;51.980;5.918;2023-03-04T00:16:37;12.20;;;2.40;;
43519;SDS011;46848;51.980;5.918;2023-03-04T00:19:03;8.00;;;1.90;;
43519;SDS011;46848;51.980;5.918;2023-03-04T00:21:29;12.10;;;2.30;;
43519;SDS011;46848;51.980;5.918;2023-03-04T00:23:55;10.23;;;2.23;;
43519;SDS011;46848;51.980;5.918;2023-03-04T00:26:20;9.87;;;2.20;;
43519;SDS011;46848;51.980;5.918;2023-03-04T00:28:46;9.70;;;2.00;;
43519;SDS011;46848;51.980;5.918;2023-03-04T00:31:12;10.70;;;2.00;;
43519;SDS011;46848;51.980;5.918;2023-03-04T00:33:37;8.43;;;2.17;;
43519;SDS011;46848;51.980;5.918;2023-03-04T00:36:08;14.17;;;2.60;;
43519;SDS011;46848;51.980;5.918;2023-03-04T00:38:34;9.23;;;1.80;;
43519;SDS011;46848;51.980;5.918;2023-03-04T00:41:02;9.67;;;2.03;;
43519;SDS011;46848;51.980;5.918;2023-03-04T00:43:28;11.70;;;2.33;;
43519;SDS011;46848;51.980;5.918;2023-03-04T00:45:54;8.93;;;2.00;;
43519;SDS011;46848;51.980;5.918;2023-03-04T00:48:20;11.33;;;2.27;;
43519;SDS011;46848;51.980;5.918;2023-03-04T00:50:46;11.13;;;1.83;;
43519;SDS011;46848;51.980;5.918;2023-03-04T00:53:13;11.90;;;1.90;;
43519;SDS011;46848;51.980;5.918;2023-03-04T00:55:39;9.20;;;1.73;;
43519;SDS011;46848;51.980;5.918;2023-03-04T00:58:06;9.00;;;2.60;;
43519;SDS011;46848;51.980;5.918;2023-03-04T01:00:32;10.83;;;1.90;;
43519;SDS011;46848;51.980;5.918;2023-03-04T01:02:57;9.70;;;1.80;;
43519;SDS011;46848;51.980;5.918;2023-03-04T01:05:23;11.23;;;1.57;;
43519;SDS011;46848;51.980;5.918;2023-03-04T01:07:49;6.23;;;1.37;;
43519;SDS011;46848;51.980;5.918;2023-03-04T01:10:15;7.17;;;1.20;;
43519;SDS011;46848;51.980;5.918;2023-03-04T01:12:41;7.40;;;1.73;;
43519;SDS011;46848;51.980;5.918;2023-03-04T01:15:08;9.03;;;1.87;;
43519;SDS011;46848;51.980;5.918;2023-03-04T01:17:35;11.90;;;3.00;;
43519;SDS011;46848;51.980;5.918;2023-03-04T01:20:01;7.23;;;1.80;;
43519;SDS011;46848;51.980;5.918;2023-03-04T01:22:28;10.77;;;1.87;;
43519;SDS011;46848;51.980;5.918;2023-03-04T01:24:53;9.77;;;1.80;;
43519;SDS011;46848;51.980;5.918;2023-03-04T01:27:20;10.80;;;1.80;;
43519;SDS011;46848;51.980;5.918;2023-03-04T01:29:47;9.93;;;1.67;;
43519;SDS011;46848;51.980;5.918;2023-03-04T01:32:18;11.55;;;2.05;;
43519;SDS011;46848;51.980;5.918;2023-03-04T01:34:44;9.80;;;1.73;;
43519;SDS011;46848;51.980;5.918;2023-03-04T01:37:10;10.40;;;2.07;;
43519;SDS011;46848;51.980;5.918;2023-03-04T01:39:37;9.63;;;2.00;;
43519;SDS011;46848;51.980;5.918;2023-03-04T01:42:03;8.93;;;1.57;;
43519;SDS011;46848;51.980;5.918;2023-03-04T01:44:29;14.03;;;1.93;;
43519;SDS011;46848;51.980;5.918;2023-03-04T01:46:55;6.40;;;1.23;;
43519;SDS011;46848;51.980;5.918;2023-03-04T01:49:21;7.27;;;1.80;;
43519;SDS011;46848;51.980;5.918;2023-03-04T01:51:48;8.53;;;1.37;;
43519;SDS011;46848;51.980;5.918;2023-03-04T01:54:17;9.93;;;1.50;;
43519;SDS011;46848;51.980;5.918;2023-03-04T01:56:46;6.23;;;1.20;;
43519;SDS011;46848;51.980;5.918;2023-03-04T01:59:21;6.23;;;1.43;;
43519;SDS011;46848;51.980;5.918;2023-03-04T02:01:49;7.57;;;1.37;;
43519;SDS011;46848;51.980;5.918;2023-03-04T02:04:16;12.43;;;1.67;;
43519;SDS011;46848;51.980;5.918;2023-03-04T02:06:45;8.77;;;1.57;;
43519;SDS011;46848;51.980;5.918;2023-03-04T02:09:12;8.33;;;2.30;;
43519;SDS011;46848;51.980;5.918;2023-03-04T02:11:39;7.73;;;1.80;;
43519;SDS011;46848;51.980;5.918;2023-03-04T02:14:06;6.03;;;1.63;;
43519;SDS011;46848;51.980;5.918;2023-03-04T02:16:34;10.47;;;1.73;;
43519;SDS011;46848;51.980;5.918;2023-03-04T02:19:00;8.90;;;1.33;;
43519;SDS011;46848;51.980;5.918;2023-03-04T02:21:27;7.10;;;1.60;;
43519;SDS011;46848;51.980;5.918;2023-03-04T02:24:14;11.15;;;1.70;;
43519;SDS011;46848;51.980;5.918;2023-03-04T02:26:53;9.40;;;1.60;;
43519;SDS011;46848;51.980;5.918;2023-03-04T02:29:19;7.70;;;1.53;;
43519;SDS011;46848;51.980;5.918;2023-03-04T02:31:46;8.13;;;1.53;;
43519;SDS011;46848;51.980;5.918;2023-03-04T02:36:55;9.10;;;1.53;;
43519;SDS011;46848;51.980;5.918;2023-03-04T02:39:24;8.00;;;1.40;;
43519;SDS011;46848;51.980;5.918;2023-03-04T02:42:12;5.70;;;1.30;;
43519;SDS011;46848;51.980;5.918;2023-03-04T02:44:39;7.10;;;1.63;;
43519;SDS011;46848;51.980;5.918;2023-03-04T02:47:08;7.37;;;1.63;;
43519;SDS011;46848;51.980;5.918;2023-03-04T02:49:36;10.80;;;2.13;;
43519;SDS011;46848;51.980;5.918;2023-03-04T02:52:13;11.87;;;1.77;;
43519;SDS011;46848;51.980;5.918;2023-03-04T02:54:42;10.60;;;1.43;;
43519;SDS011;46848;51.980;5.918;2023-03-04T02:57:09;12.73;;;1.77;;
43519;SDS011;46848;51.980;5.918;2023-03-04T02:59:36;9.67;;;1.50;;
43519;SDS011;46848;51.980;5.918;2023-03-04T03:02:03;7.47;;;1.67;;
43519;SDS011;46848;51.980;5.918;2023-03-04T03:04:30;8.60;;;1.50;;
43519;SDS011;46848;51.980;5.918;2023-03-04T03:06:57;6.97;;;1.30;;
43519;SDS011;46848;51.980;5.918;2023-03-04T03:09:23;6.07;;;1.10;;
43519;SDS011;46848;51.980;5.918;2023-03-04T03:11:48;8.50;;;1.57;;
43519;SDS011;46848;51.980;5.918;2023-03-04T03:14:14;6.07;;;1.17;;
43519;SDS011;46848;51.980;5.918;2023-03-04T03:16:40;8.90;;;1.40;;
43519;SDS011;46848;51.980;5.918;2023-03-04T03:19:07;7.30;;;1.20;;
43519;SDS011;46848;51.980;5.918;2023-03-04T03:21:33;8.53;;;1.57;;
43519;SDS011;46848;51.980;5.918;2023-03-04T03:23:58;6.30;;;0.97;;
43519;SDS011;46848;51.980;5.918;2023-03-04T03:26:24;8.77;;;1.83;;
43519;SDS011;46848;51.980;5.918;2023-03-04T03:28:50;9.77;;;1.60;;
43519;SDS011;46848;51.980;5.918;2023-03-04T03:31:18;13.00;;;1.63;;
43519;SDS011;46848;51.980;5.918;2023-03-04T03:33:44;11.83;;;1.70;;
43519;SDS011;46848;51.980;5.918;2023-03-04T03:36:10;6.33;;;1.30;;
43519;SDS011;46848;51.980;5.918;2023-03-04T03:38:35;8.90;;;2.67;;
43519;SDS011;46848;51.980;5.918;2023-03-04T03:41:01;9.03;;;1.83;;
43519;SDS011;46848;51.980;5.918;2023-03-04T03:43:27;7.83;;;1.20;;
43519;SDS011;46848;51.980;5.918;2023-03-04T03:45:53;12.00;;;1.30;;
43519;SDS011;46848;51.980;5.918;2023-03-04T03:48:19;6.73;;;2.10;;
43519;SDS011;46848;51.980;5.918;2023-03-04T03:50:45;7.43;;;1.43;;
43519;SDS011;46848;51.980;5.918;2023-03-04T03:53:10;9.80;;;1.53;;
43519;SDS011;46848;51.980;5.918;2023-03-04T03:55:36;7.97;;;1.50;;
43519;SDS011;46848;51.980;5.918;2023-03-04T03:58:03;6.33;;;1.17;;
43519;SDS011;46848;51.980;5.918;2023-03-04T04:00:28;4.97;;;1.20;;
43519;SDS011;46848;51.980;5.918;2023-03-04T04:02:54;9.07;;;1.60;;
43519;SDS011;46848;51.980;5.918;2023-03-04T04:05:22;8.77;;;1.40;;
43519;SDS011;46848;51.980;5.918;2023-03-04T04:07:47;5.77;;;1.03;;
43519;SDS011;46848;51.980;5.918;2023-03-04T04:10:13;8.73;;;1.43;;
43519;SDS011;46848;51.980;5.918;2023-03-04T04:12:40;9.00;;;1.07;;
43519;SDS011;46848;51.980;5.918;2023-03-04T04:15:06;5.10;;;1.33;;
43519;SDS011;46848;51.980;5.918;2023-03-04T04:17:32;6.17;;;1.27;;
43519;SDS011;46848;51.980;5.918;2023-03-04T04:19:59;7.67;;;1.67;;
43519;SDS011;46848;51.980;5.918;2023-03-04T04:22:26;12.47;;;2.07;;
43519;SDS011;46848;51.980;5.918;2023-03-04T04:24:51;8.33;;;1.43;;
43519;SDS011;46848;51.980;5.918;2023-03-04T04:27:17;7.43;;;1.47;;
43519;SDS011;46848;51.980;5.918;2023-03-04T04:29:42;5.90;;;1.20;;
43519;SDS011;46848;51.980;5.918;2023-03-04T04:32:08;6.60;;;1.13;;
43519;SDS011;46848;51.980;5.918;2023-03-04T04:34:37;8.93;;;1.30;;
43519;SDS011;46848;51.980;5.918;2023-03-04T04:37:03;7.83;;;1.20;;
43519;SDS011;46848;51.980;5.918;2023-03-04T04:39:28;6.87;;;1.37;;
43519;SDS011;46848;51.980;5.918;2023-03-04T04:41:54;7.03;;;1.87;;
43519;SDS011;46848;51.980;5.918;2023-03-04T04:44:20;4.57;;;1.10;;
43519;SDS011;46848;51.980;5.918;2023-03-04T04:46:46;8.30;;;1.47;;
43519;SDS011;46848;51.980;5.918;2023-03-04T04:49:12;6.27;;;1.43;;
43519;SDS011;46848;51.980;5.918;2023-03-04T04:51:38;4.47;;;1.00;;
43519;SDS011;46848;51.980;5.918;2023-03-04T04:54:04;9.93;;;1.10;;
43519;SDS011;46848;51.980;5.918;2023-03-04T04:56:30;7.20;;;0.87;;
43519;SDS011;46848;51.980;5.918;2023-03-04T04:58:57;4.97;;;1.67;;
43519;SDS011;46848;51.980;5.918;2023-03-04T05:01:25;6.50;;;1.30;;
43519;SDS011;46848;51.980;5.918;2023-03-04T05:03:52;5.80;;;0.73;;
43519;SDS011;46848;51.980;5.918;2023-03-04T05:06:19;6.67;;;1.10;;
43519;SDS011;46848;51.980;5.918;2023-03-04T05:08:46;5.73;;;1.30;;
43519;SDS011;46848;51.980;5.918;2023-03-04T05:11:12;6.07;;;1.43;;
43519;SDS011;46848;51.980;5.918;2023-03-04T05:13:38;5.77;;;1.40;;
43519;SDS011;46848;51.980;5.918;2023-03-04T05:16:05;9.13;;;1.40;;
43519;SDS011;46848;51.980;5.918;2023-03-04T05:18:31;7.90;;;1.60;;
43519;SDS011;46848;51.980;5.918;2023-03-04T05:20:58;8.20;;;1.57;;
43519;SDS011;46848;51.980;5.918;2023-03-04T05:23:26;4.90;;;0.93;;
43519;SDS011;46848;51.980;5.918;2023-03-04T05:25:52;5.87;;;1.00;;
43519;SDS011;46848;51.980;5.918;2023-03-04T05:28:18;10.13;;;1.73;;
43519;SDS011;46848;51.980;5.918;2023-03-04T05:30:46;7.00;;;1.13;;
43519;SDS011;46848;51.980;5.918;2023-03-04T05:33:12;5.00;;;1.70;;
43519;SDS011;46848;51.980;5.918;2023-03-04T05:35:40;8.13;;;1.23;;
43519;SDS011;46848;51.980;5.918;2023-03-04T05:38:07;5.37;;;1.20;;
43519;SDS011;46848;51.980;5.918;2023-03-04T05:40:36;7.87;;;1.33;;
43519;SDS011;46848;51.980;5.918;2023-03-04T05:43:02;6.63;;;1.50;;
43519;SDS011;46848;51.980;5.918;2023-03-04T05:45:28;4.23;;;0.80;;
43519;SDS011;46848;51.980;5.918;2023-03-04T05:47:54;5.70;;;1.57;;
43519;SDS011;46848;51.980;5.918;2023-03-04T05:50:20;6.57;;;0.97;;
43519;SDS011;46848;51.980;5.918;2023-03-04T05:52:46;4.43;;;1.10;;
43519;SDS011;46848;51.980;5.918;2023-03-04T05:55:12;6.27;;;0.80;;
43519;SDS011;46848;51.980;5.918;2023-03-04T05:57:38;8.00;;;1.53;;
43519;SDS011;46848;51.980;5.918;2023-03-04T06:00:04;3.63;;;0.80;;
43519;SDS011;46848;51.980;5.918;2023-03-04T06:02:33;4.90;;;0.80;;
43519;SDS011;46848;51.980;5.918;2023-03-04T06:04:59;3.73;;;0.80;;
43519;SDS011;46848;51.980;5.918;2023-03-04T06:07:25;4.73;;;0.90;;
43519;SDS011;46848;51.980;5.918;2023-03-04T06:09:51;5.40;;;1.07;;
43519;SDS011;46848;51.980;5.918;2023-03-04T06:12:16;6.73;;;1.00;;
43519;SDS011;46848;51.980;5.918;2023-03-04T06:14:42;6.70;;;0.90;;
43519;SDS011;46848;51.980;5.918;2023-03-04T06:17:07;4.53;;;0.83;;
43519;SDS011;46848;51.980;5.918;2023-03-04T06:19:37;2.70;;;0.67;;
43519;SDS011;46848;51.980;5.918;2023-03-04T06:22:06;6.53;;;1.17;;
43519;SDS011;46848;51.980;5.918;2023-03-04T06:24:32;3.87;;;0.57;;
43519;SDS011;46848;51.980;5.918;2023-03-04T06:26:58;3.33;;;0.80;;
43519;SDS011;46848;51.980;5.918;2023-03-04T06:29:24;4.93;;;1.10;;
43519;SDS011;46848;51.980;5.918;2023-03-04T06:31:51;5.73;;;1.10;;
43519;SDS011;46848;51.980;5.918;2023-03-04T06:34:17;4.80;;;0.90;;
43519;SDS011;46848;51.980;5.918;2023-03-04T06:36:43;7.40;;;1.07;;
43519;SDS011;46848;51.980;5.918;2023-03-04T06:39:08;6.33;;;1.33;;
43519;SDS011;46848;51.980;5.918;2023-03-04T06:41:34;5.13;;;1.07;;
43519;SDS011;46848;51.980;5.918;2023-03-04T06:44:00;4.07;;;0.90;;
43519;SDS011;46848;51.980;5.918;2023-03-04T06:46:26;5.07;;;1.10;;
43519;SDS011;46848;51.980;5.918;2023-03-04T06:48:51;6.83;;;1.23;;
43519;SDS011;46848;51.980;5.918;2023-03-04T06:51:17;5.23;;;0.90;;
43519;SDS011;46848;51.980;5.918;2023-03-04T06:53:43;6.40;;;1.20;;
43519;SDS011;46848;51.980;5.918;2023-03-04T06:56:10;2.77;;;0.70;;
43519;SDS011;46848;51.980;5.918;2023-03-04T06:58:37;4.23;;;0.90;;
43519;SDS011;46848;51.980;5.918;2023-03-04T07:01:16;6.57;;;1.20;;
43519;SDS011;46848;51.980;5.918;2023-03-04T07:03:43;3.73;;;0.93;;
43519;SDS011;46848;51.980;5.918;2023-03-04T07:06:10;7.10;;;1.37;;
43519;SDS011;46848;51.980;5.918;2023-03-04T07:08:37;6.43;;;1.30;;
43519;SDS011;46848;51.980;5.918;2023-03-04T07:11:03;5.77;;;1.00;;
43519;SDS011;46848;51.980;5.918;2023-03-04T07:13:28;4.80;;;1.20;;
43519;SDS011;46848;51.980;5.918;2023-03-04T07:15:54;5.57;;;1.20;;
43519;SDS011;46848;51.980;5.918;2023-03-04T07:18:20;5.37;;;1.40;;
43519;SDS011;46848;51.980;5.918;2023-03-04T07:20:45;3.83;;;0.87;;
43519;SDS011;46848;51.980;5.918;2023-03-04T07:23:11;6.70;;;1.17;;
43519;SDS011;46848;51.980;5.918;2023-03-04T07:25:37;8.07;;;1.10;;
43519;SDS011;46848;51.980;5.918;2023-03-04T07:28:07;5.23;;;1.70;;
43519;SDS011;46848;51.980;5.918;2023-03-04T07:30:42;5.83;;;1.17;;
43519;SDS011;46848;51.980;5.918;2023-03-04T07:33:09;4.67;;;1.27;;
43519;SDS011;46848;51.980;5.918;2023-03-04T07:35:35;5.93;;;1.10;;
43519;SDS011;46848;51.980;5.918;2023-03-04T07:38:02;6.67;;;1.00;;
43519;SDS011;46848;51.980;5.918;2023-03-04T07:40:28;7.10;;;1.20;;
43519;SDS011;46848;51.980;5.918;2023-03-04T07:42:53;3.77;;;0.80;;
43519;SDS011;46848;51.980;5.918;2023-03-04T07:45:20;8.43;;;1.13;;
43519;SDS011;46848;51.980;5.918;2023-03-04T07:47:47;4.57;;;0.80;;
43519;SDS011;46848;51.980;5.918;2023-03-04T07:50:16;3.53;;;0.70;;
43519;SDS011;46848;51.980;5.918;2023-03-04T07:52:45;6.17;;;1.10;;
43519;SDS011;46848;51.980;5.918;2023-03-04T07:55:13;4.80;;;1.10;;
43519;SDS011;46848;51.980;5.918;2023-03-04T07:57:40;6.70;;;1.17;;
43519;SDS011;46848;51.980;5.918;2023-03-04T08:00:09;5.10;;;0.83;;
43519;SDS011;46848;51.980;5.918;2023-03-04T08:02:47;4.17;;;0.97;;
43519;SDS011;46848;51.980;5.918;2023-03-04T08:05:13;5.53;;;1.13;;
43519;SDS011;46848;51.980;5.918;2023-03-04T08:07:39;8.50;;;1.40;;
43519;SDS011;46848;51.980;5.918;2023-03-04T08:10:07;6.63;;;1.37;;
43519;SDS011;46848;51.980;5.918;2023-03-04T08:12:34;6.10;;;1.03;;
43519;SDS011;46848;51.980;5.918;2023-03-04T08:15:00;3.70;;;0.70;;
43519;SDS011;46848;51.980;5.918;2023-03-04T08:17:27;8.37;;;1.33;;
43519;SDS011;46848;51.980;5.918;2023-03-04T08:19:54;3.67;;;0.80;;
43519;SDS011;46848;51.980;5.918;2023-03-04T08:22:21;6.40;;;1.07;;
43519;SDS011;46848;51.980;5.918;2023-03-04T08:24:48;3.80;;;0.70;;
43519;SDS011;46848;51.980;5.918;2023-03-04T08:27:14;3.80;;;0.73;;
43519;SDS011;46848;51.980;5.918;2023-03-04T08:29:41;4.33;;;0.87;;
43519;SDS011;46848;51.980;5.918;2023-03-04T08:32:07;5.13;;;1.00;;
43519;SDS011;46848;51.980;5.918;2023-03-04T08:34:32;4.03;;;0.80;;
43519;SDS011;46848;51.980;5.918;2023-03-04T08:36:58;4.80;;;1.00;;
43519;SDS011;46848;51.980;5.918;2023-03-04T08:39:23;5.57;;;1.53;;
43519;SDS011;46848;51.980;5.918;2023-03-04T08:41:49;3.97;;;0.90;;
43519;SDS011;46848;51.980;5.918;2023-03-04T08:44:15;6.47;;;1.17;;
43519;SDS011;46848;51.980;5.918;2023-03-04T08:46:42;4.93;;;0.90;;
43519;SDS011;46848;51.980;5.918;2023-03-04T08:49:09;5.10;;;1.47;;
43519;SDS011;46848;51.980;5.918;2023-03-04T08:51:36;5.27;;;0.80;;
43519;SDS011;46848;51.980;5.918;2023-03-04T08:54:02;6.00;;;1.07;;
43519;SDS011;46848;51.980;5.918;2023-03-04T08:56:29;4.40;;;1.10;;
43519;SDS011;46848;51.980;5.918;2023-03-04T08:58:55;6.47;;;1.30;;
43519;SDS011;46848;51.980;5.918;2023-03-04T09:01:21;4.50;;;1.23;;
43519;SDS011;46848;51.980;5.918;2023-03-04T09:03:46;5.23;;;1.20;;
43519;SDS011;46848;51.980;5.918;2023-03-04T09:06:13;4.63;;;0.90;;
43519;SDS011;46848;51.980;5.918;2023-03-04T09:08:40;4.17;;;0.93;;
43519;SDS011;46848;51.980;5.918;2023-03-04T09:11:06;5.27;;;1.00;;
43519;SDS011;46848;51.980;5.918;2023-03-04T09:13:31;4.10;;;0.67;;
43519;SDS011;46848;51.980;5.918;2023-03-04T09:15:59;6.00;;;1.27;;
43519;SDS011;46848;51.980;5.918;2023-03-04T09:18:26;5.77;;;1.17;;
43519;SDS011;46848;51.980;5.918;2023-03-04T09:20:55;3.73;;;0.90;;
43519;SDS011;46848;51.980;5.918;2023-03-04T09:23:24;3.97;;;0.80;;
43519;SDS011;46848;51.980;5.918;2023-03-04T09:25:50;4.63;;;1.13;;
43519;SDS011;46848;51.980;5.918;2023-03-04T09:28:18;4.37;;;0.90;;
43519;SDS011;46848;51.980;5.918;2023-03-04T09:30:44;5.20;;;0.70;;
43519;SDS011;46848;51.980;5.918;2023-03-04T09:33:11;4.13;;;0.97;;
43519;SDS011;46848;51.980;5.918;2023-03-04T09:35:36;3.80;;;0.90;;
43519;SDS011;46848;51.980;5.918;2023-03-04T09:38:02;4.63;;;1.13;;
43519;SDS011;46848;51.980;5.918;2023-03-04T09:40:32;4.90;;;0.80;;
43519;SDS011;46848;51.980;5.918;2023-03-04T09:43:10;5.10;;;1.50;;
43519;SDS011;46848;51.980;5.918;2023-03-04T09:45:49;4.53;;;0.90;;
43519;SDS011;46848;51.980;5.918;2023-03-04T09:48:20;4.37;;;1.03;;
43519;SDS011;46848;51.980;5.918;2023-03-04T09:51:03;2.50;;;0.77;;
43519;SDS011;46848;51.980;5.918;2023-03-04T09:53:39;5.80;;;0.93;;
43519;SDS011;46848;51.980;5.918;2023-03-04T09:56:16;3.50;;;0.87;;
43519;SDS011;46848;51.980;5.918;2023-03-04T09:58:47;6.17;;;1.60;;
43519;SDS011;46848;51.980;5.918;2023-03-04T10:01:39;2.00;;;0.70;;
43519;SDS011;46848;51.980;5.918;2023-03-04T10:04:13;4.23;;;0.80;;
43519;SDS011;46848;51.980;5.918;2023-03-04T10:07:01;2.23;;;0.67;;
43519;SDS011;46848;51.980;5.918;2023-03-04T10:09:42;3.40;;;0.70;;
43519;SDS011;46848;51.980;5.918;2023-03-04T10:12:23;4.10;;;0.80;;
43519;SDS011;46848;51.980;5.918;2023-03-04T10:15:02;2.10;;;0.63;;
43519;SDS011;46848;51.980;5.918;2023-03-04T10:20:15;2.80;;;0.90;;
43519;SDS011;46848;51.980;5.918;2023-03-04T10:22:48;1.77;;;0.70;;
43519;SDS011;46848;51.980;5.918;2023-03-04T10:25:26;2.13;;;0.50;;
43519;SDS011;46848;51.980;5.918;2023-03-04T10:27:58;2.13;;;0.77;;
43519;SDS011;46848;51.980;5.918;2023-03-04T10:33:30;2.63;;;0.70;;
43519;SDS011;46848;51.980;5.918;2023-03-04T10:38:43;1.93;;;0.40;;
43519;SDS011;46848;51.980;5.918;2023-03-04T10:43:48;3.67;;;0.90;;
43519;SDS011;46848;51.980;5.918;2023-03-04T10:46:24;1.90;;;0.53;;
43519;SDS011;46848;51.980;5.918;2023-03-04T10:48:50;2.73;;;0.90;;
43519;SDS011;46848;51.980;5.918;2023-03-04T10:51:22;2.50;;;0.93;;
43519;SDS011;46848;51.980;5.918;2023-03-04T10:54:16;5.03;;;1.48;;
43519;SDS011;46848;51.980;5.918;2023-03-04T10:59:45;2.97;;;0.87;;
43519;SDS011;46848;51.980;5.918;2023-03-04T11:05:32;2.67;;;0.80;;
43519;SDS011;46848;51.980;5.918;2023-03-04T11:07:58;2.67;;;0.67;;
43519;SDS011;46848;51.980;5.918;2023-03-04T11:21:14;1.83;;;0.50;;
43519;SDS011;46848;51.980;5.918;2023-03-04T11:23:44;0.87;;;0.30;;
43519;SDS011;46848;51.980;5.918;2023-03-04T11:26:25;1.30;;;0.40;;
43519;SDS011;46848;51.980;5.918;2023-03-04T11:28:59;1.75;;;0.50;;
43519;SDS011;46848;51.980;5.918;2023-03-04T11:31:37;2.10;;;0.60;;
43519;SDS011;46848;51.980;5.918;2023-03-04T11:37:09;2.30;;;0.57;;
43519;SDS011;46848;51.980;5.918;2023-03-04T11:39:50;3.00;;;0.70;;
43519;SDS011;46848;51.980;5.918;2023-03-04T11:42:35;1.38;;;0.40;;
43519;SDS011;46848;51.980;5.918;2023-03-04T11:45:10;2.23;;;0.60;;
43519;SDS011;46848;51.980;5.918;2023-03-04T11:50:28;1.83;;;0.60;;
43519;SDS011;46848;51.980;5.918;2023-03-04T11:56:44;4.13;;;0.73;;
43519;SDS011;46848;51.980;5.918;2023-03-04T12:02:17;2.43;;;0.50;;
43519;SDS011;46848;51.980;5.918;2023-03-04T12:15:49;2.13;;;0.73;;
43519;SDS011;46848;51.980;5.918;2023-03-04T12:18:40;2.08;;;0.60;;
43519;SDS011;46848;51.980;5.918;2023-03-04T12:21:18;1.80;;;0.63;;
43519;SDS011;46848;51.980;5.918;2023-03-04T12:26:50;1.30;;;0.33;;
43519;SDS011;46848;51.980;5.918;2023-03-04T12:29:47;2.27;;;0.70;;
43519;SDS011;46848;51.980;5.918;2023-03-04T12:32:34;3.00;;;0.53;;
43519;SDS011;46848;51.980;5.918;2023-03-04T12:35:21;1.23;;;0.30;;
43519;SDS011;46848;51.980;5.918;2023-03-04T12:38:11;1.83;;;0.40;;
43519;SDS011;46848;51.980;5.918;2023-03-04T12:40:49;1.23;;;0.30;;
43519;SDS011;46848;51.980;5.918;2023-03-04T12:49:13;3.73;;;0.70;;
43519;SDS011;46848;51.980;5.918;2023-03-04T12:52:15;3.23;;;0.80;;
43519;SDS011;46848;51.980;5.918;2023-03-04T12:54:40;4.63;;;1.07;;
43519;SDS011;46848;51.980;5.918;2023-03-04T12:57:21;4.60;;;0.73;;
43519;SDS011;46848;51.980;5.918;2023-03-04T13:10:50;6.20;;;1.00;;
43519;SDS011;46848;51.980;5.918;2023-03-04T13:16:26;8.60;;;1.17;;
43519;SDS011;46848;51.980;5.918;2023-03-04T13:18:54;5.83;;;1.13;;
43519;SDS011;46848;51.980;5.918;2023-03-04T13:21:21;6.50;;;1.20;;
43519;SDS011;46848;51.980;5.918;2023-03-04T13:23:49;7.03;;;1.03;;
43519;SDS011;46848;51.980;5.918;2023-03-04T13:26:21;6.40;;;1.13;;
43519;SDS011;46848;51.980;5.918;2023-03-04T13:34:42;5.03;;;1.20;;
43519;SDS011;46848;51.980;5.918;2023-03-04T13:37:27;2.92;;;0.77;;
43519;SDS011;46848;51.980;5.918;2023-03-04T13:42:45;6.70;;;1.17;;
43519;SDS011;46848;51.980;5.918;2023-03-04T13:48:01;8.23;;;1.97;;
43519;SDS011;46848;51.980;5.918;2023-03-04T13:50:33;5.57;;;1.37;;
43519;SDS011;46848;51.980;5.918;2023-03-04T14:01:32;5.73;;;1.40;;
43519;SDS011;46848;51.980;5.918;2023-03-04T14:04:21;5.60;;;1.20;;
43519;SDS011;46848;51.980;5.918;2023-03-04T14:06:49;6.10;;;1.10;;
43519;SDS011;46848;51.980;5.918;2023-03-04T14:09:22;6.13;;;1.20;;
43519;SDS011;46848;51.980;5.918;2023-03-04T14:11:49;6.22;;;0.95;;
43519;SDS011;46848;51.980;5.918;2023-03-04T14:14:24;4.70;;;1.50;;
43519;SDS011;46848;51.980;5.918;2023-03-04T14:16:53;6.70;;;1.10;;
43519;SDS011;46848;51.980;5.918;2023-03-04T14:19:32;5.30;;;1.10;;
43519;SDS011;46848;51.980;5.918;2023-03-04T14:22:17;5.47;;;1.93;;
43519;SDS011;46848;51.980;5.918;2023-03-04T14:27:44;6.13;;;1.50;;
43519;SDS011;46848;51.980;5.918;2023-03-04T14:30:24;8.57;;;1.60;;
43519;SDS011;46848;51.980;5.918;2023-03-04T14:32:51;5.30;;;1.33;;
43519;SDS011;46848;51.980;5.918;2023-03-04T14:35:21;7.73;;;1.30;;
43519;SDS011;46848;51.980;5.918;2023-03-04T14:40:41;7.10;;;1.70;;
43519;SDS011;46848;51.980;5.918;2023-03-04T14:43:15;16.77;;;1.83;;
43519;SDS011;46848;51.980;5.918;2023-03-04T14:45:43;6.15;;;1.23;;
43519;SDS011;46848;51.980;5.918;2023-03-04T14:48:15;6.40;;;1.40;;
43519;SDS011;46848;51.980;5.918;2023-03-04T14:50:50;5.30;;;1.37;;
43519;SDS011;46848;51.980;5.918;2023-03-04T14:53:17;8.27;;;1.50;;
43519;SDS011;46848;51.980;5.918;2023-03-04T14:56:01;6.47;;;1.10;;
43519;SDS011;46848;51.980;5.918;2023-03-04T14:58:32;3.17;;;0.80;;
43519;SDS011;46848;51.980;5.918;2023-03-04T15:01:13;2.93;;;0.77;;
43519;SDS011;46848;51.980;5.918;2023-03-04T15:03:54;3.57;;;0.90;;
43519;SDS011;46848;51.980;5.918;2023-03-04T15:06:24;3.20;;;1.00;;
43519;SDS011;46848;51.980;5.918;2023-03-04T15:17:27;2.33;;;0.60;;
43519;SDS011;46848;51.980;5.918;2023-03-04T15:22:35;4.47;;;0.90;;
43519;SDS011;46848;51.980;5.918;2023-03-04T15:25:21;3.53;;;0.63;;
43519;SDS011;46848;51.980;5.918;2023-03-04T15:27:48;3.73;;;0.70;;
43519;SDS011;46848;51.980;5.918;2023-03-04T15:32:56;3.70;;;0.70;;
43519;SDS011;46848;51.980;5.918;2023-03-04T15:35:24;2.13;;;0.67;;
43519;SDS011;46848;51.980;5.918;2023-03-04T15:38:00;2.77;;;0.83;;
43519;SDS011;46848;51.980;5.918;2023-03-04T15:40:58;3.07;;;0.90;;
43519;SDS011;46848;51.980;5.918;2023-03-04T15:43:24;2.97;;;0.77;;
43519;SDS011;46848;51.980;5.918;2023-03-04T15:45:50;4.50;;;1.27;;
43519;SDS011;46848;51.980;5.918;2023-03-04T15:48:19;5.63;;;1.20;;
43519;SDS011;46848;51.980;5.918;2023-03-04T15:51:01;5.57;;;0.90;;
43519;SDS011;46848;51.980;5.918;2023-03-04T15:53:51;3.00;;;0.70;;
43519;SDS011;46848;51.980;5.918;2023-03-04T15:56:23;5.10;;;1.37;;
43519;SDS011;46848;51.980;5.918;2023-03-04T15:59:00;4.63;;;0.93;;
43519;SDS011;46848;51.980;5.918;2023-03-04T16:01:31;6.33;;;0.90;;
43519;SDS011;46848;51.980;5.918;2023-03-04T16:04:01;5.90;;;1.30;;
43519;SDS011;46848;51.980;5.918;2023-03-04T16:06:28;3.77;;;0.90;;
43519;SDS011;46848;51.980;5.918;2023-03-04T16:08:57;5.93;;;1.93;;
43519;SDS011;46848;51.980;5.918;2023-03-04T16:11:24;6.17;;;1.37;;
43519;SDS011;46848;51.980;5.918;2023-03-04T16:13:51;3.60;;;1.07;;
43519;SDS011;46848;51.980;5.918;2023-03-04T16:16:19;3.43;;;1.07;;
43519;SDS011;46848;51.980;5.918;2023-03-04T16:18:49;5.33;;;1.40;;
43519;SDS011;46848;51.980;5.918;2023-03-04T16:21:16;3.73;;;1.10;;
43519;SDS011;46848;51.980;5.918;2023-03-04T16:23:46;6.37;;;1.30;;
43519;SDS011;46848;51.980;5.918;2023-03-04T16:28:44;8.47;;;1.63;;
43519;SDS011;46848;51.980;5.918;2023-03-04T16:31:19;7.93;;;1.70;;
43519;SDS011;46848;51.980;5.918;2023-03-04T16:33:49;5.17;;;1.33;;
43519;SDS011;46848;51.980;5.918;2023-03-04T16:36:17;6.10;;;1.27;;
43519;SDS011;46848;51.980;5.918;2023-03-04T16:38:47;7.72;;;1.70;;
43519;SDS011;46848;51.980;5.918;2023-03-04T16:41:15;5.03;;;1.20;;
43519;SDS011;46848;51.980;5.918;2023-03-04T16:43:45;4.57;;;1.00;;
43519;SDS011;46848;51.980;5.918;2023-03-04T16:46:12;9.03;;;1.40;;
43519;SDS011;46848;51.980;5.918;2023-03-04T16:48:41;4.33;;;1.17;;
43519;SDS011;46848;51.980;5.918;2023-03-04T16:51:18;6.43;;;1.63;;
43519;SDS011;46848;51.980;5.918;2023-03-04T16:53:55;6.40;;;1.67;;
43519;SDS011;46848;51.980;5.918;2023-03-04T16:56:24;5.50;;;1.47;;
43519;SDS011;46848;51.980;5.918;2023-03-04T16:58:50;5.87;;;1.30;;